sensor_id;sensor_type;location;lat;lon;timestamp;P1;durP1;ratioP1;P2;durP2;ratioP2
11962;SDS011;62678;52.130;5.584;2023-09-19T00:00:42;12.73;;;3.30;;
11962;SDS011;62678;52.130;5.584;2023-09-19T00:03:09;13.20;;;3.50;;
11962;SDS011;62678;52.130;5.584;2023-09-19T00:05:38;11.65;;;3.63;;
11962;SDS011;62678;52.130;5.584;2023-09-19T00:08:09;12.48;;;3.42;;
11962;SDS011;62678;52.130;5.584;2023-09-19T00:10:38;12.05;;;3.83;;
11962;SDS011;62678;52.130;5.584;2023-09-19T00:13:06;11.30;;;3.22;;
11962;SDS011;62678;52.130;5.584;2023-09-19T00:15:36;12.70;;;3.00;;
11962;SDS011;62678;52.130;5.584;2023-09-19T00:18:04;13.63;;;3.35;;
11962;SDS011;62678;52.130;5.584;2023-09-19T00:20:32;13.82;;;3.10;;
11962;SDS011;62678;52.130;5.584;2023-09-19T00:23:03;10.43;;;2.90;;
11962;SDS011;62678;52.130;5.584;2023-09-19T00:25:34;7.80;;;2.72;;
11962;SDS011;62678;52.130;5.584;2023-09-19T00:28:02;9.18;;;2.90;;
11962;SDS011;62678;52.130;5.584;2023-09-19T00:30:29;8.77;;;2.70;;
11962;SDS011;62678;52.130;5.584;2023-09-19T00:32:58;8.05;;;2.78;;
11962;SDS011;62678;52.130;5.584;2023-09-19T00:35:26;10.13;;;3.00;;
11962;SDS011;62678;52.130;5.584;2023-09-19T00:37:53;9.65;;;3.05;;
11962;SDS011;62678;52.130;5.584;2023-09-19T00:40:23;9.77;;;3.13;;
11962;SDS011;62678;52.130;5.584;2023-09-19T00:42:51;12.85;;;3.03;;
11962;SDS011;62678;52.130;5.584;2023-09-19T00:45:24;15.43;;;2.90;;
11962;SDS011;62678;52.130;5.584;2023-09-19T00:47:53;8.50;;;2.85;;
11962;SDS011;62678;52.130;5.584;2023-09-19T00:50:22;10.57;;;3.10;;
11962;SDS011;62678;52.130;5.584;2023-09-19T00:52:53;9.65;;;2.70;;
11962;SDS011;62678;52.130;5.584;2023-09-19T00:55:23;11.05;;;3.42;;
11962;SDS011;62678;52.130;5.584;2023-09-19T00:57:51;9.48;;;2.55;;
11962;SDS011;62678;52.130;5.584;2023-09-19T01:00:19;8.45;;;2.90;;
11962;SDS011;62678;52.130;5.584;2023-09-19T01:02:46;9.00;;;2.78;;
11962;SDS011;62678;52.130;5.584;2023-09-19T01:05:13;9.10;;;2.70;;
11962;SDS011;62678;52.130;5.584;2023-09-19T01:07:41;8.70;;;2.70;;
11962;SDS011;62678;52.130;5.584;2023-09-19T01:10:10;9.20;;;2.85;;
11962;SDS011;62678;52.130;5.584;2023-09-19T01:12:44;11.13;;;3.05;;
11962;SDS011;62678;52.130;5.584;2023-09-19T01:15:20;8.93;;;2.80;;
11962;SDS011;62678;52.130;5.584;2023-09-19T01:17:57;9.85;;;2.90;;
11962;SDS011;62678;52.130;5.584;2023-09-19T01:20:33;13.02;;;3.63;;
11962;SDS011;62678;52.130;5.584;2023-09-19T01:23:11;11.75;;;3.42;;
11962;SDS011;62678;52.130;5.584;2023-09-19T01:26:05;13.02;;;3.30;;
11962;SDS011;62678;52.130;5.584;2023-09-19T01:28:45;14.90;;;3.20;;
11962;SDS011;62678;52.130;5.584;2023-09-19T01:31:25;10.95;;;3.60;;
11962;SDS011;62678;52.130;5.584;2023-09-19T01:33:59;10.13;;;3.67;;
11962;SDS011;62678;52.130;5.584;2023-09-19T01:36:30;12.45;;;4.05;;
11962;SDS011;62678;52.130;5.584;2023-09-19T01:39:00;11.25;;;3.67;;
11962;SDS011;62678;52.130;5.584;2023-09-19T01:41:39;13.10;;;4.18;;
11962;SDS011;62678;52.130;5.584;2023-09-19T01:44:15;9.20;;;3.55;;
11962;SDS011;62678;52.130;5.584;2023-09-19T01:46:49;12.57;;;4.03;;
11962;SDS011;62678;52.130;5.584;2023-09-19T01:49:25;14.75;;;3.47;;
11962;SDS011;62678;52.130;5.584;2023-09-19T01:52:00;16.42;;;3.53;;
11962;SDS011;62678;52.130;5.584;2023-09-19T01:54:33;16.73;;;4.05;;
11962;SDS011;62678;52.130;5.584;2023-09-19T01:57:05;14.77;;;3.38;;
11962;SDS011;62678;52.130;5.584;2023-09-19T01:59:41;10.82;;;3.85;;
11962;SDS011;62678;52.130;5.584;2023-09-19T02:02:15;16.70;;;4.53;;
11962;SDS011;62678;52.130;5.584;2023-09-19T02:04:44;15.70;;;4.13;;
11962;SDS011;62678;52.130;5.584;2023-09-19T02:07:11;15.90;;;4.40;;
11962;SDS011;62678;52.130;5.584;2023-09-19T02:09:41;14.20;;;3.88;;
11962;SDS011;62678;52.130;5.584;2023-09-19T02:12:09;19.42;;;4.03;;
11962;SDS011;62678;52.130;5.584;2023-09-19T02:14:36;16.88;;;3.83;;
11962;SDS011;62678;52.130;5.584;2023-09-19T02:17:03;16.35;;;3.38;;
11962;SDS011;62678;52.130;5.584;2023-09-19T02:19:33;19.90;;;4.03;;
11962;SDS011;62678;52.130;5.584;2023-09-19T02:22:02;14.77;;;3.50;;
11962;SDS011;62678;52.130;5.584;2023-09-19T02:24:36;17.27;;;3.38;;
11962;SDS011;62678;52.130;5.584;2023-09-19T02:27:03;13.45;;;2.83;;
11962;SDS011;62678;52.130;5.584;2023-09-19T02:29:32;9.85;;;2.70;;
11962;SDS011;62678;52.130;5.584;2023-09-19T02:32:00;17.67;;;2.90;;
11962;SDS011;62678;52.130;5.584;2023-09-19T02:34:27;12.88;;;2.92;;
11962;SDS011;62678;52.130;5.584;2023-09-19T02:36:56;13.25;;;2.72;;
11962;SDS011;62678;52.130;5.584;2023-09-19T02:39:23;10.82;;;3.05;;
11962;SDS011;62678;52.130;5.584;2023-09-19T02:41:50;14.35;;;3.00;;
11962;SDS011;62678;52.130;5.584;2023-09-19T02:44:17;17.48;;;3.15;;
11962;SDS011;62678;52.130;5.584;2023-09-19T02:46:45;14.70;;;3.00;;
11962;SDS011;62678;52.130;5.584;2023-09-19T02:49:12;12.90;;;3.00;;
11962;SDS011;62678;52.130;5.584;2023-09-19T02:51:42;16.85;;;3.17;;
11962;SDS011;62678;52.130;5.584;2023-09-19T02:54:12;16.25;;;2.97;;
11962;SDS011;62678;52.130;5.584;2023-09-19T02:56:40;12.52;;;3.05;;
11962;SDS011;62678;52.130;5.584;2023-09-19T02:59:08;14.95;;;3.17;;
11962;SDS011;62678;52.130;5.584;2023-09-19T03:01:35;16.73;;;3.22;;
11962;SDS011;62678;52.130;5.584;2023-09-19T03:04:03;16.75;;;3.45;;
11962;SDS011;62678;52.130;5.584;2023-09-19T03:06:32;17.80;;;3.20;;
11962;SDS011;62678;52.130;5.584;2023-09-19T03:08:59;15.85;;;3.30;;
11962;SDS011;62678;52.130;5.584;2023-09-19T03:11:29;15.93;;;2.80;;
11962;SDS011;62678;52.130;5.584;2023-09-19T03:13:56;11.80;;;3.00;;
11962;SDS011;62678;52.130;5.584;2023-09-19T03:16:23;16.42;;;3.20;;
11962;SDS011;62678;52.130;5.584;2023-09-19T03:18:50;16.00;;;3.33;;
11962;SDS011;62678;52.130;5.584;2023-09-19T03:21:20;14.00;;;2.88;;
11962;SDS011;62678;52.130;5.584;2023-09-19T03:23:46;13.77;;;3.40;;
11962;SDS011;62678;52.130;5.584;2023-09-19T03:26:13;14.05;;;3.00;;
11962;SDS011;62678;52.130;5.584;2023-09-19T03:28:42;18.05;;;2.65;;
11962;SDS011;62678;52.130;5.584;2023-09-19T03:31:11;12.68;;;2.83;;
11962;SDS011;62678;52.130;5.584;2023-09-19T03:33:38;15.65;;;3.10;;
11962;SDS011;62678;52.130;5.584;2023-09-19T03:36:05;13.60;;;3.03;;
11962;SDS011;62678;52.130;5.584;2023-09-19T03:38:32;15.18;;;2.70;;
11962;SDS011;62678;52.130;5.584;2023-09-19T03:41:00;14.15;;;3.17;;
11962;SDS011;62678;52.130;5.584;2023-09-19T03:43:27;13.02;;;3.05;;
11962;SDS011;62678;52.130;5.584;2023-09-19T03:45:55;12.25;;;3.20;;
11962;SDS011;62678;52.130;5.584;2023-09-19T03:48:23;16.73;;;3.20;;
11962;SDS011;62678;52.130;5.584;2023-09-19T03:50:50;14.95;;;3.22;;
11962;SDS011;62678;52.130;5.584;2023-09-19T03:53:17;17.98;;;3.25;;
11962;SDS011;62678;52.130;5.584;2023-09-19T03:55:44;15.75;;;3.03;;
11962;SDS011;62678;52.130;5.584;2023-09-19T03:58:12;12.57;;;2.60;;
11962;SDS011;62678;52.130;5.584;2023-09-19T04:00:39;17.08;;;3.83;;
11962;SDS011;62678;52.130;5.584;2023-09-19T04:03:07;15.68;;;3.45;;
11962;SDS011;62678;52.130;5.584;2023-09-19T04:05:36;16.23;;;2.97;;
11962;SDS011;62678;52.130;5.584;2023-09-19T04:08:03;15.77;;;2.75;;
11962;SDS011;62678;52.130;5.584;2023-09-19T04:10:30;21.60;;;3.72;;
11962;SDS011;62678;52.130;5.584;2023-09-19T04:12:57;13.52;;;2.88;;
11962;SDS011;62678;52.130;5.584;2023-09-19T04:15:24;16.38;;;3.30;;
11962;SDS011;62678;52.130;5.584;2023-09-19T04:17:52;14.05;;;4.05;;
11962;SDS011;62678;52.130;5.584;2023-09-19T04:20:20;13.65;;;3.05;;
11962;SDS011;62678;52.130;5.584;2023-09-19T04:22:48;11.82;;;2.50;;
11962;SDS011;62678;52.130;5.584;2023-09-19T04:25:16;15.23;;;3.58;;
11962;SDS011;62678;52.130;5.584;2023-09-19T04:27:43;16.45;;;3.05;;
11962;SDS011;62678;52.130;5.584;2023-09-19T04:30:11;10.02;;;2.38;;
11962;SDS011;62678;52.130;5.584;2023-09-19T04:32:40;16.58;;;3.58;;
11962;SDS011;62678;52.130;5.584;2023-09-19T04:35:08;16.17;;;3.38;;
11962;SDS011;62678;52.130;5.584;2023-09-19T04:37:38;10.93;;;2.53;;
11962;SDS011;62678;52.130;5.584;2023-09-19T04:40:07;11.70;;;2.92;;
11962;SDS011;62678;52.130;5.584;2023-09-19T04:42:38;15.98;;;3.00;;
11962;SDS011;62678;52.130;5.584;2023-09-19T04:45:07;12.93;;;2.70;;
11962;SDS011;62678;52.130;5.584;2023-09-19T04:47:35;13.35;;;2.80;;
11962;SDS011;62678;52.130;5.584;2023-09-19T04:50:04;12.75;;;2.65;;
11962;SDS011;62678;52.130;5.584;2023-09-19T04:52:33;10.90;;;2.80;;
11962;SDS011;62678;52.130;5.584;2023-09-19T04:55:02;12.43;;;2.97;;
11962;SDS011;62678;52.130;5.584;2023-09-19T04:57:30;12.90;;;2.80;;
11962;SDS011;62678;52.130;5.584;2023-09-19T04:59:57;12.88;;;2.90;;
11962;SDS011;62678;52.130;5.584;2023-09-19T05:02:24;14.65;;;3.22;;
11962;SDS011;62678;52.130;5.584;2023-09-19T05:04:56;15.40;;;2.80;;
11962;SDS011;62678;52.130;5.584;2023-09-19T05:07:24;18.08;;;3.17;;
11962;SDS011;62678;52.130;5.584;2023-09-19T05:09:51;16.05;;;2.90;;
11962;SDS011;62678;52.130;5.584;2023-09-19T05:12:20;14.10;;;3.30;;
11962;SDS011;62678;52.130;5.584;2023-09-19T05:14:47;10.70;;;2.85;;
11962;SDS011;62678;52.130;5.584;2023-09-19T05:17:14;13.55;;;2.63;;
11962;SDS011;62678;52.130;5.584;2023-09-19T05:19:42;9.38;;;2.78;;
11962;SDS011;62678;52.130;5.584;2023-09-19T05:22:09;14.98;;;3.22;;
11962;SDS011;62678;52.130;5.584;2023-09-19T05:24:37;14.07;;;3.00;;
11962;SDS011;62678;52.130;5.584;2023-09-19T05:27:05;15.80;;;2.47;;
11962;SDS011;62678;52.130;5.584;2023-09-19T05:29:34;13.68;;;3.40;;
11962;SDS011;62678;52.130;5.584;2023-09-19T05:32:01;16.85;;;2.47;;
11962;SDS011;62678;52.130;5.584;2023-09-19T05:34:29;11.07;;;2.60;;
11962;SDS011;62678;52.130;5.584;2023-09-19T05:36:55;15.10;;;3.25;;
11962;SDS011;62678;52.130;5.584;2023-09-19T05:39:22;14.85;;;2.90;;
11962;SDS011;62678;52.130;5.584;2023-09-19T05:41:49;16.80;;;2.50;;
11962;SDS011;62678;52.130;5.584;2023-09-19T05:44:16;12.65;;;3.35;;
11962;SDS011;62678;52.130;5.584;2023-09-19T05:46:45;13.55;;;2.85;;
11962;SDS011;62678;52.130;5.584;2023-09-19T05:49:13;14.57;;;3.00;;
11962;SDS011;62678;52.130;5.584;2023-09-19T05:51:40;15.63;;;2.70;;
11962;SDS011;62678;52.130;5.584;2023-09-19T05:54:08;12.98;;;2.95;;
11962;SDS011;62678;52.130;5.584;2023-09-19T05:56:36;13.57;;;3.08;;
11962;SDS011;62678;52.130;5.584;2023-09-19T05:59:06;21.55;;;3.30;;
11962;SDS011;62678;52.130;5.584;2023-09-19T06:01:33;12.25;;;2.80;;
11962;SDS011;62678;52.130;5.584;2023-09-19T06:04:01;11.98;;;2.95;;
11962;SDS011;62678;52.130;5.584;2023-09-19T06:06:29;9.90;;;2.40;;
11962;SDS011;62678;52.130;5.584;2023-09-19T06:08:58;11.30;;;2.90;;
11962;SDS011;62678;52.130;5.584;2023-09-19T06:11:25;13.95;;;3.20;;
11962;SDS011;62678;52.130;5.584;2023-09-19T06:13:54;14.10;;;2.88;;
11962;SDS011;62678;52.130;5.584;2023-09-19T06:16:21;12.20;;;2.60;;
11962;SDS011;62678;52.130;5.584;2023-09-19T06:18:49;20.58;;;3.42;;
11962;SDS011;62678;52.130;5.584;2023-09-19T06:21:19;15.10;;;3.15;;
11962;SDS011;62678;52.130;5.584;2023-09-19T06:23:46;10.23;;;2.55;;
11962;SDS011;62678;52.130;5.584;2023-09-19T06:26:13;12.57;;;2.92;;
11962;SDS011;62678;52.130;5.584;2023-09-19T06:28:40;10.70;;;2.83;;
11962;SDS011;62678;52.130;5.584;2023-09-19T06:31:07;14.35;;;2.95;;
11962;SDS011;62678;52.130;5.584;2023-09-19T06:33:35;16.13;;;2.60;;
11962;SDS011;62678;52.130;5.584;2023-09-19T06:36:03;13.15;;;2.33;;
11962;SDS011;62678;52.130;5.584;2023-09-19T06:38:33;18.35;;;3.72;;
11962;SDS011;62678;52.130;5.584;2023-09-19T06:41:01;13.52;;;3.28;;
11962;SDS011;62678;52.130;5.584;2023-09-19T06:43:30;14.20;;;2.95;;
11962;SDS011;62678;52.130;5.584;2023-09-19T06:45:58;12.88;;;2.90;;
11962;SDS011;62678;52.130;5.584;2023-09-19T06:48:25;12.02;;;2.47;;
11962;SDS011;62678;52.130;5.584;2023-09-19T06:50:54;14.00;;;3.20;;
11962;SDS011;62678;52.130;5.584;2023-09-19T06:53:23;13.55;;;2.83;;
11962;SDS011;62678;52.130;5.584;2023-09-19T06:55:52;12.35;;;3.03;;
11962;SDS011;62678;52.130;5.584;2023-09-19T06:58:19;16.90;;;3.50;;
11962;SDS011;62678;52.130;5.584;2023-09-19T07:00:46;15.32;;;2.90;;
11962;SDS011;62678;52.130;5.584;2023-09-19T07:03:15;16.23;;;2.83;;
11962;SDS011;62678;52.130;5.584;2023-09-19T07:05:47;9.75;;;2.47;;
11962;SDS011;62678;52.130;5.584;2023-09-19T07:08:15;18.83;;;3.20;;
11962;SDS011;62678;52.130;5.584;2023-09-19T07:10:44;15.68;;;2.90;;
11962;SDS011;62678;52.130;5.584;2023-09-19T07:13:14;12.80;;;2.70;;
11962;SDS011;62678;52.130;5.584;2023-09-19T07:15:43;15.85;;;2.90;;
11962;SDS011;62678;52.130;5.584;2023-09-19T07:18:12;15.48;;;2.85;;
11962;SDS011;62678;52.130;5.584;2023-09-19T07:20:41;12.85;;;3.05;;
11962;SDS011;62678;52.130;5.584;2023-09-19T07:23:13;15.00;;;3.60;;
11962;SDS011;62678;52.130;5.584;2023-09-19T07:25:41;12.18;;;3.08;;
11962;SDS011;62678;52.130;5.584;2023-09-19T07:28:08;13.85;;;3.00;;
11962;SDS011;62678;52.130;5.584;2023-09-19T07:30:37;16.17;;;2.67;;
11962;SDS011;62678;52.130;5.584;2023-09-19T07:33:06;12.25;;;2.60;;
11962;SDS011;62678;52.130;5.584;2023-09-19T07:35:36;15.70;;;2.85;;
11962;SDS011;62678;52.130;5.584;2023-09-19T07:38:04;15.60;;;2.90;;
11962;SDS011;62678;52.130;5.584;2023-09-19T07:40:32;10.02;;;2.20;;
11962;SDS011;62678;52.130;5.584;2023-09-19T07:42:59;14.35;;;3.20;;
11962;SDS011;62678;52.130;5.584;2023-09-19T07:45:26;15.15;;;3.17;;
11962;SDS011;62678;52.130;5.584;2023-09-19T07:47:56;11.60;;;2.75;;
11962;SDS011;62678;52.130;5.584;2023-09-19T07:50:25;15.27;;;3.33;;
11962;SDS011;62678;52.130;5.584;2023-09-19T07:52:53;14.05;;;3.03;;
11962;SDS011;62678;52.130;5.584;2023-09-19T07:55:21;11.32;;;2.45;;
11962;SDS011;62678;52.130;5.584;2023-09-19T07:57:50;16.38;;;2.90;;
11962;SDS011;62678;52.130;5.584;2023-09-19T08:00:18;11.93;;;2.63;;
11962;SDS011;62678;52.130;5.584;2023-09-19T08:02:45;14.73;;;3.17;;
11962;SDS011;62678;52.130;5.584;2023-09-19T08:05:14;12.98;;;2.72;;
11962;SDS011;62678;52.130;5.584;2023-09-19T08:07:42;11.57;;;2.75;;
11962;SDS011;62678;52.130;5.584;2023-09-19T08:10:11;17.10;;;2.95;;
11962;SDS011;62678;52.130;5.584;2023-09-19T08:12:39;15.85;;;3.13;;
11962;SDS011;62678;52.130;5.584;2023-09-19T08:15:11;14.30;;;2.97;;
11962;SDS011;62678;52.130;5.584;2023-09-19T08:17:38;13.70;;;3.55;;
11962;SDS011;62678;52.130;5.584;2023-09-19T08:20:06;16.10;;;2.95;;
11962;SDS011;62678;52.130;5.584;2023-09-19T08:22:42;13.05;;;3.00;;
11962;SDS011;62678;52.130;5.584;2023-09-19T08:25:12;15.88;;;3.28;;
11962;SDS011;62678;52.130;5.584;2023-09-19T08:27:41;18.85;;;3.05;;
11962;SDS011;62678;52.130;5.584;2023-09-19T08:30:11;22.40;;;3.45;;
11962;SDS011;62678;52.130;5.584;2023-09-19T08:32:38;15.82;;;3.13;;
11962;SDS011;62678;52.130;5.584;2023-09-19T08:35:07;16.83;;;3.28;;
11962;SDS011;62678;52.130;5.584;2023-09-19T08:37:35;12.82;;;2.80;;
11962;SDS011;62678;52.130;5.584;2023-09-19T08:40:04;15.13;;;3.22;;
11962;SDS011;62678;52.130;5.584;2023-09-19T08:42:46;12.50;;;2.70;;
11962;SDS011;62678;52.130;5.584;2023-09-19T08:45:15;13.38;;;2.83;;
11962;SDS011;62678;52.130;5.584;2023-09-19T08:47:45;17.33;;;3.03;;
11962;SDS011;62678;52.130;5.584;2023-09-19T08:50:18;25.30;;;3.80;;
11962;SDS011;62678;52.130;5.584;2023-09-19T08:52:50;18.50;;;3.78;;
11962;SDS011;62678;52.130;5.584;2023-09-19T08:55:22;15.13;;;3.42;;
11962;SDS011;62678;52.130;5.584;2023-09-19T08:57:55;11.85;;;2.80;;
11962;SDS011;62678;52.130;5.584;2023-09-19T09:00:28;18.73;;;3.38;;
11962;SDS011;62678;52.130;5.584;2023-09-19T09:02:56;16.00;;;3.20;;
11962;SDS011;62678;52.130;5.584;2023-09-19T09:05:25;15.52;;;3.88;;
11962;SDS011;62678;52.130;5.584;2023-09-19T09:07:55;15.15;;;3.65;;
11962;SDS011;62678;52.130;5.584;2023-09-19T09:10:24;17.83;;;3.60;;
11962;SDS011;62678;52.130;5.584;2023-09-19T09:12:52;18.50;;;3.92;;
11962;SDS011;62678;52.130;5.584;2023-09-19T09:15:20;8.70;;;2.60;;
11962;SDS011;62678;52.130;5.584;2023-09-19T09:17:48;13.40;;;3.15;;
11962;SDS011;62678;52.130;5.584;2023-09-19T09:20:18;13.55;;;2.80;;
11962;SDS011;62678;52.130;5.584;2023-09-19T09:22:51;14.13;;;2.80;;
11962;SDS011;62678;52.130;5.584;2023-09-19T09:25:20;15.20;;;3.15;;
11962;SDS011;62678;52.130;5.584;2023-09-19T09:27:59;15.02;;;3.05;;
11962;SDS011;62678;52.130;5.584;2023-09-19T09:30:33;15.13;;;3.08;;
11962;SDS011;62678;52.130;5.584;2023-09-19T09:33:08;15.75;;;3.15;;
11962;SDS011;62678;52.130;5.584;2023-09-19T09:35:37;9.70;;;2.50;;
11962;SDS011;62678;52.130;5.584;2023-09-19T09:38:13;9.63;;;2.35;;
11962;SDS011;62678;52.130;5.584;2023-09-19T09:40:48;14.13;;;3.05;;
11962;SDS011;62678;52.130;5.584;2023-09-19T09:43:32;13.63;;;2.63;;
11962;SDS011;62678;52.130;5.584;2023-09-19T09:46:08;12.70;;;2.75;;
11962;SDS011;62678;52.130;5.584;2023-09-19T09:48:57;12.27;;;2.85;;
11962;SDS011;62678;52.130;5.584;2023-09-19T09:51:44;11.75;;;2.95;;
11962;SDS011;62678;52.130;5.584;2023-09-19T09:54:14;15.93;;;2.88;;
11962;SDS011;62678;52.130;5.584;2023-09-19T09:56:52;15.57;;;3.17;;
11962;SDS011;62678;52.130;5.584;2023-09-19T10:02:16;11.07;;;2.83;;
11962;SDS011;62678;52.130;5.584;2023-09-19T10:04:49;15.95;;;2.70;;
11962;SDS011;62678;52.130;5.584;2023-09-19T10:07:39;12.23;;;2.80;;
11962;SDS011;62678;52.130;5.584;2023-09-19T10:10:12;14.38;;;2.90;;
11962;SDS011;62678;52.130;5.584;2023-09-19T10:12:42;9.95;;;2.42;;
11962;SDS011;62678;52.130;5.584;2023-09-19T10:15:17;13.13;;;2.53;;
11962;SDS011;62678;52.130;5.584;2023-09-19T10:17:46;13.43;;;2.85;;
11962;SDS011;62678;52.130;5.584;2023-09-19T10:20:14;16.00;;;2.90;;
11962;SDS011;62678;52.130;5.584;2023-09-19T10:23:03;15.93;;;2.80;;
11962;SDS011;62678;52.130;5.584;2023-09-19T10:25:34;12.70;;;2.33;;
11962;SDS011;62678;52.130;5.584;2023-09-19T10:28:05;11.43;;;2.50;;
11962;SDS011;62678;52.130;5.584;2023-09-19T10:30:37;9.02;;;2.22;;
11962;SDS011;62678;52.130;5.584;2023-09-19T10:33:10;12.68;;;2.33;;
11962;SDS011;62678;52.130;5.584;2023-09-19T10:35:38;15.13;;;3.03;;
11962;SDS011;62678;52.130;5.584;2023-09-19T10:38:09;9.23;;;1.88;;
11962;SDS011;62678;52.130;5.584;2023-09-19T10:40:37;11.15;;;2.30;;
11962;SDS011;62678;52.130;5.584;2023-09-19T10:43:10;11.05;;;2.20;;
11962;SDS011;62678;52.130;5.584;2023-09-19T10:45:39;9.77;;;2.33;;
11962;SDS011;62678;52.130;5.584;2023-09-19T10:48:10;10.13;;;2.58;;
11962;SDS011;62678;52.130;5.584;2023-09-19T10:50:41;8.57;;;2.20;;
11962;SDS011;62678;52.130;5.584;2023-09-19T10:53:12;9.35;;;2.70;;
11962;SDS011;62678;52.130;5.584;2023-09-19T10:55:40;11.70;;;2.53;;
11962;SDS011;62678;52.130;5.584;2023-09-19T10:58:16;8.35;;;1.90;;
11962;SDS011;62678;52.130;5.584;2023-09-19T11:00:55;13.10;;;2.45;;
11962;SDS011;62678;52.130;5.584;2023-09-19T11:03:27;10.75;;;2.38;;
11962;SDS011;62678;52.130;5.584;2023-09-19T11:06:00;19.30;;;2.67;;
11962;SDS011;62678;52.130;5.584;2023-09-19T11:11:39;14.23;;;2.45;;
11962;SDS011;62678;52.130;5.584;2023-09-19T11:20:18;9.07;;;2.15;;
11962;SDS011;62678;52.130;5.584;2023-09-19T11:25:49;11.05;;;1.92;;
11962;SDS011;62678;52.130;5.584;2023-09-19T11:28:31;9.70;;;1.92;;
11962;SDS011;62678;52.130;5.584;2023-09-19T11:40:33;7.43;;;1.70;;
11962;SDS011;62678;52.130;5.584;2023-09-19T11:43:00;9.65;;;2.00;;
11962;SDS011;62678;52.130;5.584;2023-09-19T11:46:06;6.82;;;1.50;;
11962;SDS011;62678;52.130;5.584;2023-09-19T11:48:33;8.32;;;1.77;;
11962;SDS011;62678;52.130;5.584;2023-09-19T11:51:09;9.00;;;1.90;;
11962;SDS011;62678;52.130;5.584;2023-09-19T11:53:44;7.35;;;1.80;;
11962;SDS011;62678;52.130;5.584;2023-09-19T11:56:14;5.47;;;1.70;;
11962;SDS011;62678;52.130;5.584;2023-09-19T11:58:43;7.70;;;1.65;;
11962;SDS011;62678;52.130;5.584;2023-09-19T12:01:12;7.20;;;1.70;;
11962;SDS011;62678;52.130;5.584;2023-09-19T12:03:46;8.63;;;2.05;;
11962;SDS011;62678;52.130;5.584;2023-09-19T12:06:14;10.85;;;1.73;;
11962;SDS011;62678;52.130;5.584;2023-09-19T12:08:42;6.43;;;1.60;;
11962;SDS011;62678;52.130;5.584;2023-09-19T12:11:12;8.10;;;2.00;;
11962;SDS011;62678;52.130;5.584;2023-09-19T12:13:42;10.38;;;1.70;;
11962;SDS011;62678;52.130;5.584;2023-09-19T12:16:11;8.35;;;1.50;;
11962;SDS011;62678;52.130;5.584;2023-09-19T12:18:43;5.55;;;1.40;;
11962;SDS011;62678;52.130;5.584;2023-09-19T12:21:27;6.00;;;1.40;;
11962;SDS011;62678;52.130;5.584;2023-09-19T12:24:03;5.47;;;1.40;;
11962;SDS011;62678;52.130;5.584;2023-09-19T12:26:39;6.38;;;1.58;;
11962;SDS011;62678;52.130;5.584;2023-09-19T12:29:11;8.30;;;1.20;;
11962;SDS011;62678;52.130;5.584;2023-09-19T12:31:47;6.80;;;1.30;;
11962;SDS011;62678;52.130;5.584;2023-09-19T12:34:16;5.15;;;1.15;;
11962;SDS011;62678;52.130;5.584;2023-09-19T12:36:44;5.68;;;1.42;;
11962;SDS011;62678;52.130;5.584;2023-09-19T12:39:21;8.80;;;1.48;;
11962;SDS011;62678;52.130;5.584;2023-09-19T12:41:51;8.35;;;1.60;;
11962;SDS011;62678;52.130;5.584;2023-09-19T12:44:19;6.63;;;1.30;;
11962;SDS011;62678;52.130;5.584;2023-09-19T12:46:46;8.75;;;1.35;;
11962;SDS011;62678;52.130;5.584;2023-09-19T12:49:17;4.80;;;1.17;;
11962;SDS011;62678;52.130;5.584;2023-09-19T12:51:45;7.60;;;1.95;;
11962;SDS011;62678;52.130;5.584;2023-09-19T12:54:12;5.38;;;1.17;;
11962;SDS011;62678;52.130;5.584;2023-09-19T12:56:41;4.15;;;1.40;;
11962;SDS011;62678;52.130;5.584;2023-09-19T12:59:14;6.00;;;1.42;;
11962;SDS011;62678;52.130;5.584;2023-09-19T13:01:42;4.80;;;1.20;;
11962;SDS011;62678;52.130;5.584;2023-09-19T13:04:13;4.72;;;1.27;;
11962;SDS011;62678;52.130;5.584;2023-09-19T13:06:44;5.88;;;1.58;;
11962;SDS011;62678;52.130;5.584;2023-09-19T13:09:13;7.80;;;1.90;;
11962;SDS011;62678;52.130;5.584;2023-09-19T13:11:41;6.15;;;1.33;;
11962;SDS011;62678;52.130;5.584;2023-09-19T13:14:15;6.55;;;1.23;;
11962;SDS011;62678;52.130;5.584;2023-09-19T13:16:56;6.88;;;1.33;;
11962;SDS011;62678;52.130;5.584;2023-09-19T13:19:35;5.22;;;1.05;;
11962;SDS011;62678;52.130;5.584;2023-09-19T13:22:04;6.40;;;1.15;;
11962;SDS011;62678;52.130;5.584;2023-09-19T13:24:33;5.55;;;1.13;;
11962;SDS011;62678;52.130;5.584;2023-09-19T13:27:05;6.10;;;1.20;;
11962;SDS011;62678;52.130;5.584;2023-09-19T13:29:33;4.57;;;1.10;;
11962;SDS011;62678;52.130;5.584;2023-09-19T13:32:00;7.30;;;1.67;;
11962;SDS011;62678;52.130;5.584;2023-09-19T13:34:29;3.25;;;1.00;;
11962;SDS011;62678;52.130;5.584;2023-09-19T13:36:56;8.35;;;0.95;;
11962;SDS011;62678;52.130;5.584;2023-09-19T13:39:24;5.97;;;1.40;;
11962;SDS011;62678;52.130;5.584;2023-09-19T13:41:51;6.03;;;1.13;;
11962;SDS011;62678;52.130;5.584;2023-09-19T13:44:17;6.25;;;1.30;;
11962;SDS011;62678;52.130;5.584;2023-09-19T13:46:46;6.03;;;1.10;;
11962;SDS011;62678;52.130;5.584;2023-09-19T13:49:13;5.93;;;1.20;;
11962;SDS011;62678;52.130;5.584;2023-09-19T13:51:40;4.68;;;1.33;;
11962;SDS011;62678;52.130;5.584;2023-09-19T13:54:08;3.72;;;0.85;;
11962;SDS011;62678;52.130;5.584;2023-09-19T13:56:36;3.78;;;1.08;;
11962;SDS011;62678;52.130;5.584;2023-09-19T13:59:03;6.07;;;1.50;;
11962;SDS011;62678;52.130;5.584;2023-09-19T14:01:30;5.65;;;1.10;;
11962;SDS011;62678;52.130;5.584;2023-09-19T14:03:59;3.38;;;0.90;;
11962;SDS011;62678;52.130;5.584;2023-09-19T14:06:27;8.13;;;1.23;;
11962;SDS011;62678;52.130;5.584;2023-09-19T14:08:54;7.05;;;1.25;;
11962;SDS011;62678;52.130;5.584;2023-09-19T14:11:21;3.50;;;0.93;;
11962;SDS011;62678;52.130;5.584;2023-09-19T14:13:48;5.65;;;1.20;;
11962;SDS011;62678;52.130;5.584;2023-09-19T14:16:15;4.63;;;0.95;;
11962;SDS011;62678;52.130;5.584;2023-09-19T14:18:42;4.15;;;0.98;;
11962;SDS011;62678;52.130;5.584;2023-09-19T14:21:12;5.97;;;1.20;;
11962;SDS011;62678;52.130;5.584;2023-09-19T14:23:39;2.35;;;1.10;;
11962;SDS011;62678;52.130;5.584;2023-09-19T14:26:08;6.22;;;1.30;;
11962;SDS011;62678;52.130;5.584;2023-09-19T14:28:35;4.30;;;1.02;;
11962;SDS011;62678;52.130;5.584;2023-09-19T14:31:04;3.92;;;1.10;;
11962;SDS011;62678;52.130;5.584;2023-09-19T14:33:32;4.10;;;1.30;;
11962;SDS011;62678;52.130;5.584;2023-09-19T14:36:01;6.65;;;1.05;;
11962;SDS011;62678;52.130;5.584;2023-09-19T14:38:32;5.97;;;1.02;;
11962;SDS011;62678;52.130;5.584;2023-09-19T14:41:00;3.83;;;1.23;;
11962;SDS011;62678;52.130;5.584;2023-09-19T14:43:27;4.97;;;1.27;;
11962;SDS011;62678;52.130;5.584;2023-09-19T14:45:55;5.03;;;1.23;;
11962;SDS011;62678;52.130;5.584;2023-09-19T14:48:23;5.90;;;1.20;;
11962;SDS011;62678;52.130;5.584;2023-09-19T14:50:51;7.45;;;1.80;;
11962;SDS011;62678;52.130;5.584;2023-09-19T14:53:18;6.78;;;1.60;;
11962;SDS011;62678;52.130;5.584;2023-09-19T14:55:47;5.00;;;1.35;;
11962;SDS011;62678;52.130;5.584;2023-09-19T14:58:17;3.88;;;1.38;;
11962;SDS011;62678;52.130;5.584;2023-09-19T15:00:44;6.93;;;1.45;;
11962;SDS011;62678;52.130;5.584;2023-09-19T15:03:11;4.63;;;1.40;;
11962;SDS011;62678;52.130;5.584;2023-09-19T15:05:39;6.50;;;1.60;;
11962;SDS011;62678;52.130;5.584;2023-09-19T15:08:06;4.00;;;1.30;;
11962;SDS011;62678;52.130;5.584;2023-09-19T15:10:32;4.45;;;1.30;;
11962;SDS011;62678;52.130;5.584;2023-09-19T15:13:01;5.40;;;1.60;;
11962;SDS011;62678;52.130;5.584;2023-09-19T15:15:28;6.93;;;1.92;;
11962;SDS011;62678;52.130;5.584;2023-09-19T15:17:58;6.72;;;1.52;;